Time;durP1;ratioP1;P1;durP2;ratioP2;P2;SDS_P1;SDS_P2;PMS_P1;PMS_P2;Temp;Humidity;BMP_temperature;BMP_pressure;BME280_temperature;BME280_humidity;BME280_pressure;Samples;Min_cycle;Max_cycle;Signal;HPM_P1;HPM_P2
2022/11/13 00:02:26;;;;;;;0.10;0.10;;;;;;;7.69;90.32;97609.84;4978946;28;20054;-77
2022/11/13 00:05:31;;;;;;;0.10;0.10;;;;;;;7.68;90.07;97617.00;4980924;28;20045;-78
2022/11/13 00:08:36;;;;;;;0.10;0.10;;;;;;;7.77;88.93;97605.13;4983357;28;20124;-77
2022/11/13 00:11:40;;;;;;;0.10;0.10;;;;;;;7.86;90.59;97595.13;4981267;28;20045;-79
2022/11/13 00:14:45;;;;;;;0.10;0.10;;;;;;;7.80;92.62;97604.75;4979855;28;20355;-77
2022/11/13 00:17:49;;;;;;;0.10;0.10;;;;;;;7.73;91.69;97608.41;4980955;28;20632;-77
2022/11/13 00:20:55;;;;;;;0.10;0.10;;;;;;;7.65;91.98;97598.78;4978663;28;20044;-77
2022/11/13 00:23:59;;;;;;;0.10;0.10;;;;;;;7.60;94.05;97600.38;4969207;28;20554;-78
2022/11/13 00:27:03;;;;;;;0.10;0.10;;;;;;;7.50;95.11;97600.78;4982709;28;20734;-78
2022/11/13 00:30:08;;;;;;;0.10;0.10;;;;;;;7.40;97.56;97595.84;4980840;28;20132;-78
2022/11/13 00:33:13;;;;;;;0.10;0.10;;;;;;;7.38;96.16;97591.72;4982063;28;20433;-77
2022/11/13 00:36:23;;;;;;;0.10;0.10;;;;;;;7.45;94.12;97590.72;4983076;28;20053;-77
2022/11/13 00:39:27;;;;;;;0.10;0.10;;;;;;;7.42;94.38;97598.31;4980636;28;20403;-77
2022/11/13 00:42:32;;;;;;;0.10;0.10;;;;;;;7.35;95.53;97595.63;4979145;28;20364;-77
2022/11/13 00:45:36;;;;;;;0.10;0.10;;;;;;;7.25;98.54;97592.53;4972595;28;20669;-76
2022/11/13 00:48:40;;;;;;;0.10;0.10;;;;;;;7.13;97.64;97586.94;4983367;28;20324;-76
2022/11/13 00:51:45;;;;;;;0.10;0.10;;;;;;;7.08;96.86;97581.41;4982565;28;20077;-75
2022/11/13 00:54:49;;;;;;;0.20;0.20;;;;;;;7.01;99.55;97591.19;4980900;28;20038;-76
2022/11/13 00:57:53;;;;;;;0.10;0.10;;;;;;;7.04;97.28;97589.97;4979132;28;20524;-77
2022/11/13 01:01:07;;;;;;;0.10;0.10;;;;;;;7.13;93.26;97584.28;4978992;28;20608;-75
2022/11/13 01:04:11;;;;;;;0.10;0.10;;;;;;;7.16;95.00;97578.56;4978955;28;20053;-77
2022/11/13 01:07:16;;;;;;;0.10;0.10;;;;;;;7.19;90.79;97580.00;4982058;28;20124;-78
2022/11/13 01:10:21;;;;;;;0.10;0.10;;;;;;;7.16;90.24;97569.72;4979448;28;20460;-78
2022/11/13 01:13:26;;;;;;;0.10;0.10;;;;;;;7.08;90.81;97586.72;4977373;28;20130;-77
2022/11/13 01:16:30;;;;;;;0.10;0.10;;;;;;;7.01;93.36;97580.56;4979070;28;20462;-76
2022/11/13 01:19:35;;;;;;;0.10;0.10;;;;;;;6.99;91.26;97586.06;4968646;28;20057;-77
2022/11/13 01:22:39;;;;;;;0.30;0.20;;;;;;;6.90;90.27;97575.78;4978911;28;20053;-77
2022/11/13 01:25:43;;;;;;;0.10;0.10;;;;;;;6.78;94.05;97575.53;4979801;28;20298;-75
2022/11/13 01:28:48;;;;;;;0.10;0.10;;;;;;;6.61;96.84;97569.69;4980771;28;20044;-76
2022/11/13 01:31:53;;;;;;;0.10;0.10;;;;;;;6.42;97.54;97571.22;4979992;28;20065;-75
2022/11/13 01:34:57;;;;;;;0.10;0.10;;;;;;;6.36;98.10;97571.19;4980187;28;20045;-76
2022/11/13 01:38:02;;;;;;;0.10;0.10;;;;;;;6.33;97.63;97563.63;4979382;28;20038;-77
2022/11/13 01:41:11;;;;;;;0.10;0.10;;;;;;;6.18;97.62;97558.41;4979164;28;20053;-77
2022/11/13 01:44:17;;;;;;;0.20;0.10;;;;;;;6.13;100.00;97568.78;4978167;28;20453;-76
2022/11/13 01:47:22;;;;;;;0.10;0.10;;;;;;;6.01;100.00;97560.53;4981010;28;20038;-77
2022/11/13 01:50:27;;;;;;;0.10;0.10;;;;;;;5.88;100.00;97563.84;4979320;28;20425;-76
2022/11/13 01:53:32;;;;;;;0.10;0.10;;;;;;;5.76;100.00;97552.13;4979732;28;20096;-76
2022/11/13 01:56:39;;;;;;;0.10;0.10;;;;;;;5.65;98.27;97544.66;4968576;28;20050;-74
2022/11/13 01:59:48;;;;;;;0.10;0.10;;;;;;;5.73;100.00;97557.78;4981059;28;20512;-75
2022/11/13 02:02:53;;;;;;;0.10;0.10;;;;;;;5.62;100.00;97536.25;4980666;28;20058;-75
2022/11/13 02:05:57;;;;;;;0.10;0.10;;;;;;;5.67;100.00;97545.28;4977267;28;20523;-76
2022/11/13 02:09:05;;;;;;;0.10;0.10;;;;;;;5.59;100.00;97545.41;4980303;28;20050;-76
2022/11/13 02:12:12;;;;;;;0.10;0.10;;;;;;;5.50;99.14;97543.91;4977960;28;20589;-78
2022/11/13 02:15:22;;;;;;;0.10;0.10;;;;;;;5.51;100.00;97541.03;4978990;28;20369;-78
2022/11/13 02:18:29;;;;;;;0.10;0.10;;;;;;;5.57;99.16;97548.25;4974928;28;20045;-75
2022/11/13 02:21:44;;;;;;;0.10;0.10;;;;;;;5.56;95.36;97540.50;4978228;28;20590;-76
2022/11/13 02:24:49;;;;;;;0.10;0.10;;;;;;;5.53;99.36;97535.56;4976223;28;20038;-77
2022/11/13 02:27:53;;;;;;;0.10;0.10;;;;;;;5.52;99.09;97533.91;4977231;28;20038;-75
2022/11/13 02:31:05;;;;;;;0.10;0.10;;;;;;;5.49;99.61;97524.50;4978503;28;20049;-75
2022/11/13 02:34:10;;;;;;;0.10;0.10;;;;;;;5.49;98.23;97521.03;4976871;28;20202;-78
2022/11/13 02:37:14;;;;;;;0.10;0.10;;;;;;;5.46;98.84;97524.06;4976193;28;20080;-78
2022/11/13 02:40:19;;;;;;;0.10;0.10;;;;;;;5.46;97.54;97524.88;4978547;28;20054;-78
2022/11/13 02:43:23;;;;;;;0.10;0.10;;;;;;;5.47;95.50;97513.25;4975734;28;20585;-76
2022/11/13 02:46:27;;;;;;;0.10;0.10;;;;;;;5.52;88.21;97516.13;4978840;28;20581;-76
2022/11/13 02:49:32;;;;;;;0.10;0.10;;;;;;;5.60;87.62;97504.56;4977641;28;20486;-76
2022/11/13 02:52:37;;;;;;;0.10;0.10;;;;;;;5.71;78.11;97504.06;4976222;28;20119;-77
2022/11/13 02:55:41;;;;;;;0.10;0.10;;;;;;;5.71;84.00;97504.06;4979531;28;20037;-77
2022/11/13 02:58:46;;;;;;;0.10;0.10;;;;;;;5.76;77.93;97498.19;4975568;28;20585;-75
2022/11/13 03:01:50;;;;;;;0.10;0.10;;;;;;;5.99;75.13;97495.28;4978975;28;20526;-78
2022/11/13 03:04:55;;;;;;;0.10;0.10;;;;;;;5.93;68.85;97493.44;4968445;28;20112;-77
2022/11/13 03:07:59;;;;;;;0.10;0.10;;;;;;;6.12;66.07;97492.72;4976290;28;20688;-75
2022/11/13 03:11:08;;;;;;;0.10;0.10;;;;;;;6.33;59.27;97487.34;4979021;28;20075;-78
2022/11/13 03:14:13;;;;;;;0.10;0.10;;;;;;;6.63;57.20;97487.91;4978002;28;20136;-76
2022/11/13 03:17:17;;;;;;;0.10;0.10;;;;;;;6.71;57.62;97486.91;4978080;28;20414;-78
2022/11/13 03:20:21;;;;;;;0.10;0.10;;;;;;;6.66;57.06;97474.19;4980151;28;20497;-78
2022/11/13 03:23:27;;;;;;;0.10;0.10;;;;;;;6.68;57.95;97481.97;4976478;28;20370;-78
2022/11/13 03:26:32;;;;;;;0.10;0.10;;;;;;;6.76;57.08;97491.59;4974470;28;20042;-78
2022/11/13 03:29:39;;;;;;;0.10;0.10;;;;;;;6.66;59.14;97481.34;4976831;28;20042;-77
2022/11/13 03:32:44;;;;;;;0.10;0.10;;;;;;;6.62;58.45;97477.47;4975657;28;20042;-78
2022/11/13 03:35:48;;;;;;;0.10;0.10;;;;;;;6.57;58.96;97477.22;4983659;28;20745;-75
2022/11/13 03:38:52;;;;;;;0.10;0.10;;;;;;;6.67;57.73;97480.31;4979925;28;20038;-78
2022/11/13 03:41:56;;;;;;;0.10;0.10;;;;;;;6.60;59.21;97482.94;4979883;28;20141;-76
2022/11/13 03:45:01;;;;;;;0.10;0.10;;;;;;;6.50;60.90;97473.72;4979924;28;20096;-78
2022/11/13 03:48:05;;;;;;;0.17;0.17;;;;;;;6.40;67.91;97474.09;4979955;28;20038;-75
2022/11/13 03:51:09;;;;;;;0.10;0.10;;;;;;;6.28;70.39;97473.81;4982114;28;20490;-78
2022/11/13 03:54:14;;;;;;;0.10;0.10;;;;;;;6.22;72.87;97479.06;4979826;28;20061;-77
2022/11/13 03:57:18;;;;;;;0.10;0.10;;;;;;;6.33;70.87;97471.38;4980772;28;20343;-78
2022/11/13 04:00:23;;;;;;;0.10;0.10;;;;;;;6.48;69.99;97470.44;4981846;28;20108;-78
2022/11/13 04:03:28;;;;;;;0.10;0.10;;;;;;;6.56;65.51;97457.78;4981506;28;20081;-77
2022/11/13 04:06:32;;;;;;;0.10;0.10;;;;;;;6.64;69.19;97454.94;4981455;28;20372;-76
2022/11/13 04:09:36;;;;;;;0.10;0.10;;;;;;;6.32;79.66;97453.78;4981027;28;20124;-78
2022/11/13 04:12:41;;;;;;;0.10;0.10;;;;;;;6.15;83.68;97460.47;4978593;28;20100;-76
2022/11/13 04:15:46;;;;;;;0.10;0.10;;;;;;;5.99;88.83;97452.78;4982949;28;20038;-78
2022/11/13 04:18:51;;;;;;;0.10;0.10;;;;;;;5.88;89.73;97448.81;4981163;28;20053;-78
2022/11/13 04:21:55;;;;;;;0.10;0.10;;;;;;;5.83;91.37;97452.03;4978012;28;20548;-76
2022/11/13 04:25:00;;;;;;;0.10;0.10;;;;;;;5.84;91.16;97440.41;4978455;28;20069;-77
2022/11/13 04:28:05;;;;;;;0.10;0.10;;;;;;;5.94;84.67;97433.97;4978627;28;20058;-78
2022/11/13 04:31:09;;;;;;;0.10;0.10;;;;;;;6.11;83.13;97441.41;4979088;28;20627;-78
2022/11/13 04:34:14;;;;;;;0.10;0.10;;;;;;;6.37;72.79;97438.06;4979216;28;20375;-76
2022/11/13 04:37:18;;;;;;;0.10;0.10;;;;;;;6.57;67.66;97432.00;4980691;28;20077;-77
2022/11/13 04:40:23;;;;;;;0.10;0.10;;;;;;;6.66;68.99;97431.63;4980218;28;20476;-77
2022/11/13 04:43:27;;;;;;;0.10;0.10;;;;;;;6.61;74.34;97425.25;4979312;28;20053;-76
2022/11/13 04:46:32;;;;;;;0.10;0.10;;;;;;;6.45;77.91;97418.44;4979136;28;20042;-77
2022/11/13 04:49:36;;;;;;;0.10;0.10;;;;;;;6.38;80.84;97429.09;4979639;28;20049;-77
2022/11/13 04:52:41;;;;;;;0.10;0.10;;;;;;;6.37;80.76;97427.41;4977620;28;20065;-75
2022/11/13 04:55:46;;;;;;;0.10;0.10;;;;;;;6.43;76.85;97421.31;4978325;28;20428;-76
2022/11/13 04:58:50;;;;;;;0.10;0.10;;;;;;;6.55;79.11;97416.25;4980102;28;20049;-78
2022/11/13 05:01:54;;;;;;;0.10;0.10;;;;;;;6.62;77.42;97414.44;4978961;28;20038;-76
2022/11/13 05:05:00;;;;;;;0.10;0.10;;;;;;;6.64;81.72;97417.72;4981902;28;20207;-76
2022/11/13 05:08:04;;;;;;;0.10;0.10;;;;;;;6.63;84.00;97415.25;4979954;28;20036;-75
2022/11/13 05:11:09;;;;;;;0.10;0.10;;;;;;;6.66;84.04;97398.88;4984084;28;20101;-78
2022/11/13 05:14:13;;;;;;;0.10;0.10;;;;;;;6.57;86.20;97405.41;4982041;28;20052;-75
2022/11/13 05:17:18;;;;;;;0.10;0.10;;;;;;;6.50;89.35;97394.75;4981464;28;20539;-78
2022/11/13 05:20:22;;;;;;;0.10;0.10;;;;;;;6.43;90.02;97394.72;4980488;28;20227;-78
2022/11/13 05:23:27;;;;;;;0.10;0.10;;;;;;;6.36;91.44;97393.06;4968106;28;20042;-75
2022/11/13 05:26:31;;;;;;;0.10;0.10;;;;;;;6.43;89.72;97389.41;4981942;28;20049;-77
2022/11/13 05:29:35;;;;;;;0.10;0.10;;;;;;;6.53;90.04;97380.22;4982107;28;20048;-77
2022/11/13 05:32:40;;;;;;;0.10;0.10;;;;;;;6.65;89.55;97375.97;4980069;28;20212;-78
2022/11/13 05:35:44;;;;;;;0.10;0.10;;;;;;;6.69;89.71;97371.88;4979103;28;20054;-77
2022/11/13 05:38:49;;;;;;;0.10;0.10;;;;;;;6.80;89.79;97365.97;4978191;28;20130;-76
2022/11/13 05:41:53;;;;;;;0.10;0.10;;;;;;;6.72;90.58;97360.84;4981823;28;20049;-75
2022/11/13 05:44:57;;;;;;;0.10;0.10;;;;;;;6.74;91.32;97358.00;4979672;28;20041;-76
2022/11/13 05:48:02;;;;;;;0.10;0.10;;;;;;;6.76;91.71;97364.72;4978824;28;20347;-76
2022/11/13 05:51:16;;;;;;;0.10;0.10;;;;;;;6.66;93.36;97351.00;4969800;28;20561;-76
2022/11/13 05:54:20;;;;;;;0.10;0.10;;;;;;;6.68;93.68;97355.09;4973819;28;20241;-76
2022/11/13 05:57:24;;;;;;;0.10;0.10;;;;;;;6.80;92.51;97355.34;4977378;28;20045;-75
2022/11/13 06:00:29;;;;;;;0.10;0.10;;;;;;;6.83;93.49;97351.44;4981156;28;20104;-75
2022/11/13 06:03:33;;;;;;;0.10;0.10;;;;;;;6.88;93.46;97352.50;4981408;28;20477;-76
2022/11/13 06:06:38;;;;;;;0.15;0.15;;;;;;;6.85;93.92;97352.91;4980194;28;20291;-76
2022/11/13 06:09:42;;;;;;;0.10;0.10;;;;;;;6.95;92.87;97352.50;4979414;28;20706;-77
2022/11/13 06:12:47;;;;;;;0.10;0.10;;;;;;;6.87;94.06;97356.16;4979044;28;20591;-78
2022/11/13 06:15:54;;;;;;;0.10;0.10;;;;;;;6.85;94.46;97350.25;4980448;28;20068;-76
2022/11/13 06:19:00;;;;;;;0.10;0.10;;;;;;;6.82;92.86;97350.63;4978830;28;20085;-78
2022/11/13 06:22:05;;;;;;;0.10;0.10;;;;;;;6.78;94.66;97346.75;4980373;28;20291;-75
2022/11/13 06:25:09;;;;;;;0.10;0.10;;;;;;;6.81;93.74;97345.53;4980749;28;20053;-79
2022/11/13 06:28:14;;;;;;;0.10;0.10;;;;;;;6.75;95.11;97338.34;4979753;28;20589;-77
2022/11/13 06:31:21;;;;;;;0.10;0.10;;;;;;;6.76;94.36;97340.78;4979677;28;20046;-77
2022/11/13 06:34:26;;;;;;;0.10;0.10;;;;;;;6.84;92.66;97337.13;4979432;28;20508;-78
2022/11/13 06:37:30;;;;;;;0.10;0.10;;;;;;;6.80;94.59;97326.06;4978335;28;20335;-77
2022/11/13 06:40:37;;;;;;;0.10;0.10;;;;;;;6.78;93.63;97336.13;4981025;28;20149;-76
2022/11/13 06:43:42;;;;;;;0.10;0.10;;;;;;;6.92;93.05;97332.41;4972775;28;20100;-77
2022/11/13 06:46:47;;;;;;;0.10;0.10;;;;;;;6.97;93.12;97326.50;4980607;28;20092;-77
2022/11/13 06:49:51;;;;;;;0.10;0.10;;;;;;;7.03;93.49;97325.69;4980878;28;20042;-76
2022/11/13 06:52:55;;;;;;;0.10;0.10;;;;;;;7.04;92.81;97334.47;4975217;28;20057;-74
2022/11/13 06:56:00;;;;;;;0.10;0.10;;;;;;;7.06;93.67;97332.44;4979239;28;20138;-77
2022/11/13 06:59:04;;;;;;;0.10;0.10;;;;;;;6.97;93.96;97321.16;4981014;28;20652;-78
2022/11/13 07:02:10;;;;;;;0.10;0.10;;;;;;;7.04;93.53;97318.50;4980130;28;20048;-78
2022/11/13 07:05:15;;;;;;;0.10;0.10;;;;;;;7.05;94.83;97325.47;4979652;28;20137;-78
2022/11/13 07:08:20;;;;;;;0.10;0.10;;;;;;;7.07;93.03;97323.41;4982782;28;20510;-79
2022/11/13 07:11:24;;;;;;;0.10;0.10;;;;;;;7.13;92.88;97323.41;4986214;28;20042;-76
2022/11/13 07:14:28;;;;;;;0.10;0.10;;;;;;;7.15;92.59;97317.88;4983475;28;20375;-77
2022/11/13 07:17:33;;;;;;;0.10;0.10;;;;;;;7.15;92.97;97325.88;4983323;28;20046;-77
2022/11/13 07:20:38;;;;;;;0.10;0.10;;;;;;;7.35;89.91;97323.22;4985067;28;20517;-78
2022/11/13 07:23:42;;;;;;;0.10;0.10;;;;;;;7.48;88.74;97324.00;4973408;28;20046;-76
2022/11/13 07:26:46;;;;;;;0.10;0.10;;;;;;;7.59;85.85;97319.06;4986300;28;20125;-79
2022/11/13 07:29:51;;;;;;;0.10;0.10;;;;;;;7.74;81.02;97306.31;4981987;28;20038;-76
2022/11/13 07:33:00;;;;;;;0.10;0.10;;;;;;;7.91;74.90;97301.34;4984831;28;20097;-79
2022/11/13 07:36:04;;;;;;;0.10;0.10;;;;;;;8.02;70.75;97295.38;4974181;28;20129;-77
2022/11/13 07:39:09;;;;;;;0.10;0.10;;;;;;;8.24;67.29;97291.34;4982685;28;20684;-79
2022/11/13 07:42:13;;;;;;;0.10;0.10;;;;;;;8.44;62.28;97285.94;4980268;28;20112;-77
2022/11/13 07:45:18;;;;;;;0.10;0.10;;;;;;;8.60;60.39;97284.59;4984932;28;20719;-78
2022/11/13 07:48:23;;;;;;;0.10;0.10;;;;;;;8.61;59.74;97281.72;4983365;28;20077;-79
2022/11/13 07:51:28;;;;;;;0.10;0.10;;;;;;;8.76;57.53;97280.59;4982746;28;20344;-80
2022/11/13 07:54:32;;;;;;;0.10;0.10;;;;;;;8.89;57.00;97277.81;4973516;28;20049;-77
2022/11/13 07:57:37;;;;;;;0.10;0.10;;;;;;;9.01;55.37;97277.91;4977800;28;20168;-79
2022/11/13 08:00:42;;;;;;;0.10;0.10;;;;;;;8.97;56.85;97274.06;4293292;28;10001133;-80
2022/11/13 08:03:46;;;;;;;0.10;0.10;;;;;;;8.97;56.71;97279.41;4983356;28;20526;-77
2022/11/13 08:06:50;;;;;;;0.10;0.10;;;;;;;8.96;57.53;97275.13;4982911;28;20069;-79
2022/11/13 08:09:55;;;;;;;0.10;0.10;;;;;;;8.97;57.40;97279.41;4982684;28;20124;-78
2022/11/13 08:13:02;;;;;;;0.10;0.10;;;;;;;9.10;56.29;97273.94;4982096;28;20048;-79
2022/11/13 08:16:06;;;;;;;0.10;0.10;;;;;;;9.20;53.79;97277.75;4982091;28;20042;-78
2022/11/13 08:19:11;;;;;;;0.10;0.10;;;;;;;9.29;55.76;97269.47;4979252;28;20119;-79
2022/11/13 08:22:15;;;;;;;0.10;0.10;;;;;;;9.44;53.87;97277.94;4982527;28;20522;-79
2022/11/13 08:25:20;;;;;;;0.10;0.10;;;;;;;9.58;52.10;97266.09;4983961;28;20175;-78
2022/11/13 08:28:24;;;;;;;0.10;0.10;;;;;;;9.81;50.58;97269.94;4981506;28;20034;-78
2022/11/13 08:31:28;;;;;;;0.10;0.10;;;;;;;9.86;49.79;97262.06;4981805;28;20112;-78
2022/11/13 08:34:33;;;;;;;0.10;0.10;;;;;;;10.03;48.78;97260.38;4982345;28;20038;-79
2022/11/13 08:37:38;;;;;;;0.10;0.10;;;;;;;10.21;48.37;97260.38;4974477;28;20045;-79
2022/11/13 08:40:43;;;;;;;0.10;0.10;;;;;;;10.44;46.45;97250.84;4982454;28;20100;-79
2022/11/13 08:43:47;;;;;;;0.10;0.10;;;;;;;10.54;46.37;97254.59;4979945;28;20700;-78
2022/11/13 08:46:54;;;;;;;0.10;0.10;;;;;;;10.64;46.00;97251.34;4981905;28;20073;-77
2022/11/13 08:49:59;;;;;;;0.10;0.10;;;;;;;10.95;44.09;97254.78;4982740;28;20132;-79
2022/11/13 08:53:03;;;;;;;0.10;0.10;;;;;;;11.07;43.26;97252.94;4981148;28;20139;-79
2022/11/13 08:56:07;;;;;;;0.10;0.10;;;;;;;11.17;42.76;97253.16;4973370;28;20065;-79
2022/11/13 08:59:12;;;;;;;0.10;0.10;;;;;;;11.32;42.56;97242.78;4979299;28;21064;-79
2022/11/13 09:02:16;;;;;;;0.10;0.10;;;;;;;11.42;41.94;97242.19;4979320;28;20467;-80
2022/11/13 09:05:21;;;;;;;0.15;0.15;;;;;;;11.58;40.48;97237.97;4981409;28;20057;-80
2022/11/13 09:08:29;;;;;;;0.10;0.10;;;;;;;11.76;41.09;97235.16;4978896;28;20041;-79
2022/11/13 09:11:34;;;;;;;0.20;0.20;;;;;;;12.00;39.65;97238.63;4981303;28;20046;-80
2022/11/13 09:14:38;;;;;;;0.10;0.10;;;;;;;12.31;39.92;97234.66;4981595;28;20612;-79
2022/11/13 09:17:42;;;;;;;0.20;0.20;;;;;;;13.06;39.00;97228.91;4982451;28;20209;-80
2022/11/13 09:20:47;;;;;;;0.20;0.20;;;;;;;14.23;36.76;97218.91;4983839;28;20351;-79
2022/11/13 09:23:51;;;;;;;0.25;0.25;;;;;;;15.46;34.50;97215.38;4963914;28;20042;-80
2022/11/13 09:26:55;;;;;;;0.20;0.20;;;;;;;16.85;32.85;97215.56;4980917;28;20597;-80
2022/11/13 09:30:00;;;;;;;0.20;0.20;;;;;;;17.52;30.57;97212.53;4982900;28;20088;-78
2022/11/13 09:33:05;;;;;;;0.20;0.20;;;;;;;18.28;29.60;97207.91;4980625;28;20057;-81
2022/11/13 09:36:14;;;;;;;0.25;0.25;;;;;;;18.71;28.70;97200.09;4981656;28;20145;-81
2022/11/13 09:39:18;;;;;;;0.20;0.20;;;;;;;20.02;27.30;97202.63;4982540;28;20105;-81
2022/11/13 09:42:27;;;;;;;0.20;0.20;;;;;;;20.82;26.43;97205.31;4980486;28;20518;-81
2022/11/13 09:45:33;;;;;;;0.30;0.30;;;;;;;20.86;25.99;97194.66;4982977;28;20030;-79
2022/11/13 09:48:42;;;;;;;0.25;0.25;;;;;;;21.85;25.02;97182.53;4979725;28;20129;-79
2022/11/13 09:51:52;;;;;;;0.20;0.20;;;;;;;22.14;25.23;97184.97;4957514;28;20585;-79
2022/11/13 09:54:57;;;;;;;0.30;0.30;;;;;;;22.10;23.93;97192.97;4981861;28;20052;-81
2022/11/13 09:58:20;;;;;;;0.20;0.20;;;;;;;22.95;24.42;97188.56;4969301;28;20048;-81
2022/11/13 10:01:33;;;;;;;0.20;0.20;;;;;;;23.90;22.98;97180.09;4980434;28;20430;-79
2022/11/13 10:04:50;;;;;;;0.20;0.20;;;;;;;24.27;24.30;97183.38;4982272;28;20472;-81
2022/11/13 10:08:16;;;;;;;0.20;0.20;;;;;;;24.26;23.08;97182.56;4980576;28;20045;-78
2022/11/13 10:11:44;;;;;;;0.20;0.20;;;;;;;25.17;21.29;97173.44;4982980;28;20718;-79
2022/11/13 10:14:53;;;;;;;0.10;0.10;;;;;;;25.09;22.68;97170.72;4983800;28;20108;-80
2022/11/13 10:18:05;;;;;;;0.10;0.10;;;;;;;27.15;24.05;97159.69;4980511;28;20164;-77
2022/11/13 10:21:37;;;;;;;0.10;0.10;;;;;;;28.74;20.68;97153.41;4981939;28;20065;-80
2022/11/13 10:24:45;;;;;;;0.10;0.10;;;;;;;29.62;19.74;97149.53;4950902;28;20339;-79
2022/11/13 10:27:57;;;;;;;0.10;0.10;;;;;;;30.08;19.63;97144.38;4973849;28;20034;-79
2022/11/13 10:31:02;;;;;;;0.10;0.10;;;;;;;30.73;20.62;97144.63;4979693;28;20056;-80
2022/11/13 10:34:07;;;;;;;0.10;0.10;;;;;;;30.65;17.93;97148.38;4981381;28;20039;-81
2022/11/13 10:37:26;;;;;;;0.10;0.10;;;;;;;31.31;17.92;97133.56;4984570;28;20619;-81
2022/11/13 10:40:34;;;;;;;0.10;0.10;;;;;;;31.48;17.58;97132.28;4971385;28;20034;-81
2022/11/13 10:44:14;;;;;;;0.10;0.10;;;;;;;32.25;16.17;97136.69;4972343;28;20049;-78
2022/11/13 10:47:22;;;;;;;0.10;0.10;;;;;;;32.44;16.10;97122.72;4979531;28;20112;-78
2022/11/13 10:50:29;;;;;;;0.10;0.10;;;;;;;33.01;16.01;97108.81;4979035;28;20053;-79
2022/11/13 10:53:40;;;;;;;0.10;0.10;;;;;;;32.61;15.11;97106.72;4979059;28;20037;-79
2022/11/13 10:56:58;;;;;;;0.10;0.10;;;;;;;33.76;14.38;97106.75;4981537;28;20145;-80
2022/11/13 11:00:40;;;;;;;0.10;0.10;;;;;;;33.31;12.41;97091.25;4979549;28;20405;-80
2022/11/13 11:03:49;;;;;;;0.10;0.10;;;;;;;33.87;13.74;97081.84;4980467;28;20047;-79
2022/11/13 11:06:54;;;;;;;0.10;0.10;;;;;;;34.53;14.52;97082.66;4979271;28;20712;-80
2022/11/13 11:09:58;;;;;;;0.10;0.10;;;;;;;36.36;14.50;97082.47;4980829;28;20241;-81
2022/11/13 11:13:09;;;;;;;0.10;0.10;;;;;;;36.83;14.51;97078.31;4979857;28;20279;-80
2022/11/13 11:16:20;;;;;;;0.17;0.10;;;;;;;36.44;13.76;97072.13;4978994;28;20265;-78
2022/11/13 11:19:28;;;;;;;0.20;0.20;;;;;;;34.06;13.64;97067.72;4980063;28;20657;-80
2022/11/13 11:22:38;;;;;;;0.10;0.10;;;;;;;33.60;13.89;97064.59;4979272;28;20046;-78
2022/11/13 11:25:47;;;;;;;0.10;0.10;;;;;;;31.59;13.02;97066.06;4980858;28;20349;-80
2022/11/13 11:29:00;;;;;;;0.10;0.10;;;;;;;30.27;14.10;97063.56;4979948;28;20042;-81
2022/11/13 11:32:23;;;;;;;0.10;0.10;;;;;;;30.69;15.72;97058.16;4977772;28;20058;-79
2022/11/13 11:35:43;;;;;;;0.10;0.10;;;;;;;31.56;15.82;97062.09;4980883;28;20038;-77
2022/11/13 11:39:07;;;;;;;0.10;0.10;;;;;;;31.23;16.19;97056.41;4278298;28;10000075;-79
2022/11/13 11:42:31;;;;;;;0.10;0.10;;;;;;;30.83;15.09;97049.34;4977971;28;20056;-81
2022/11/13 11:45:41;;;;;;;0.10;0.10;;;;;;;32.36;14.45;97043.50;4978607;28;20595;-80
2022/11/13 11:48:46;;;;;;;0.10;0.10;;;;;;;31.13;14.43;97038.44;4979000;28;20383;-79
2022/11/13 11:52:23;;;;;;;0.10;0.10;;;;;;;31.21;14.48;97028.31;4979816;28;20078;-82
2022/11/13 11:55:37;;;;;;;0.10;0.10;;;;;;;30.77;14.93;97026.75;4979493;28;20822;-79
2022/11/13 11:59:14;;;;;;;0.20;0.20;;;;;;;31.84;16.61;97020.28;4981524;28;20409;-80
2022/11/13 12:02:38;;;;;;;0.13;0.13;;;;;;;33.08;13.72;97006.34;4964734;28;20434;-80
2022/11/13 12:05:51;;;;;;;0.10;0.10;;;;;;;32.39;14.14;97008.75;4978969;28;20553;-80
2022/11/13 12:09:07;;;;;;;0.10;0.10;;;;;;;31.84;14.86;97008.41;4979484;28;20244;-82
2022/11/13 12:12:53;;;;;;;0.10;0.10;;;;;;;33.36;14.51;97004.97;4981414;28;20462;-81
2022/11/13 12:16:19;;;;;;;0.10;0.10;;;;;;;35.31;13.25;97002.25;4978306;28;20046;-80
2022/11/13 12:19:30;;;;;;;0.20;0.20;;;;;;;36.79;11.79;96985.53;4979453;28;20049;-82
2022/11/13 12:22:42;;;;;;;0.13;0.13;;;;;;;37.97;12.43;96984.56;4978249;28;20133;-80
2022/11/13 12:26:09;;;;;;;0.10;0.10;;;;;;;37.38;10.69;96979.16;4982822;28;20074;-81
2022/11/13 12:29:45;;;;;;;0.10;0.10;;;;;;;37.77;9.71;96992.75;4982647;28;20070;-82
2022/11/13 12:33:21;;;;;;;0.10;0.10;;;;;;;38.87;9.94;96989.84;4980244;28;20043;-80
2022/11/13 12:36:27;;;;;;;0.10;0.10;;;;;;;37.69;9.34;96980.06;4981271;28;20640;-81
2022/11/13 12:40:06;;;;;;;0.10;0.10;;;;;;;38.00;9.36;96982.97;4981282;28;20054;-82
2022/11/13 12:43:30;;;;;;;0.10;0.10;;;;;;;37.83;9.56;96979.97;4981331;28;20495;-83
2022/11/13 12:46:38;;;;;;;0.20;0.20;;;;;;;37.04;10.23;96974.25;4982804;28;20030;-80
2022/11/13 12:49:43;;;;;;;0.10;0.10;;;;;;;38.67;11.15;96975.72;4972989;28;20123;-80
2022/11/13 12:53:08;;;;;;;0.10;0.10;;;;;;;38.17;9.62;96967.97;4973297;28;20049;-79
2022/11/13 12:56:26;;;;;;;0.10;0.10;;;;;;;39.29;9.51;96957.63;4982031;28;20087;-80
2022/11/13 12:59:34;;;;;;;0.10;0.10;;;;;;;38.83;10.85;96961.94;4982567;28;20437;-81
2022/11/13 13:02:46;;;;;;;0.10;0.10;;;;;;;39.47;9.55;96952.53;4981637;28;20061;-79
2022/11/13 13:06:12;;;;;;;0.10;0.10;;;;;;;37.53;9.59;96949.13;4982238;28;20244;-81
2022/11/13 13:09:22;;;;;;;0.10;0.10;;;;;;;35.64;10.52;96942.63;4980301;28;20461;-80
2022/11/13 13:12:41;;;;;;;0.10;0.10;;;;;;;36.80;10.14;96934.16;4978940;28;20038;-81
2022/11/13 13:16:02;;;;;;;0.00;0.00;;;;;;;30.28;12.95;96929.16;4983748;28;20030;-78
2022/11/13 13:19:27;;;;;;;0.00;0.00;;;;;;;25.85;16.88;96939.78;4980353;28;20069;-78
2022/11/13 13:22:34;;;;;;;0.00;0.00;;;;;;;24.97;19.15;96936.75;4979084;28;20628;-78
2022/11/13 13:25:39;;;;;;;0.00;0.00;;;;;;;24.19;20.34;96931.50;4981259;28;20039;-80
2022/11/13 13:29:07;;;;;;;0.00;0.00;;;;;;;23.40;18.97;96923.66;4978053;28;20046;-78
2022/11/13 13:32:21;;;;;;;0.00;0.00;;;;;;;22.68;20.45;96921.38;4981935;28;20489;-80
2022/11/13 13:35:36;;;;;;;0.00;0.00;;;;;;;22.18;21.44;96913.44;4979816;28;20030;-80
2022/11/13 13:38:48;;;;;;;0.00;0.00;;;;;;;21.85;21.65;96910.13;4969595;28;20046;-77
2022/11/13 13:42:17;;;;;;;0.00;0.00;;;;;;;20.67;21.86;96909.16;4981652;28;20173;-78
2022/11/13 13:45:30;;;;;;;0.00;0.00;;;;;;;20.59;23.04;96897.09;4980634;28;20100;-79
2022/11/13 13:48:41;;;;;;;0.00;0.00;;;;;;;20.33;23.35;96893.22;4979445;28;20087;-80
2022/11/13 13:51:50;;;;;;;0.00;0.00;;;;;;;19.24;23.80;96894.44;4980616;28;20042;-79
2022/11/13 13:54:55;;;;;;;0.00;0.00;;;;;;;19.05;23.21;96899.84;4980295;28;20145;-78
2022/11/13 13:58:11;;;;;;;0.00;0.00;;;;;;;19.13;23.88;96901.91;4982288;28;20050;-76
2022/11/13 14:01:27;;;;;;;0.00;0.00;;;;;;;19.21;23.81;96890.41;4981225;28;20496;-76
2022/11/13 14:04:40;;;;;;;0.00;0.00;;;;;;;18.89;23.94;96901.94;4973739;28;20315;-78
2022/11/13 14:07:45;;;;;;;0.00;0.00;;;;;;;18.87;24.73;96903.34;4978813;28;20458;-78
2022/11/13 14:10:51;;;;;;;0.00;0.00;;;;;;;19.08;25.00;96899.28;4982570;28;20224;-78
2022/11/13 14:14:06;;;;;;;0.00;0.00;;;;;;;18.73;25.35;96905.94;4981813;28;20035;-78
2022/11/13 14:17:20;;;;;;;0.00;0.00;;;;;;;18.57;25.27;96899.88;4977122;28;20109;-79
2022/11/13 14:20:24;;;;;;;0.00;0.00;;;;;;;18.41;27.14;96900.34;4984095;28;20038;-80
2022/11/13 14:23:56;;;;;;;0.00;0.00;;;;;;;17.94;27.15;96891.88;4979223;28;20281;-79
2022/11/13 14:27:11;;;;;;;0.00;0.00;;;;;;;17.74;25.92;96884.75;4981150;28;20030;-76
2022/11/13 14:30:27;;;;;;;0.00;0.00;;;;;;;17.32;26.61;96882.59;4978940;28;20593;-77
2022/11/13 14:33:36;;;;;;;0.00;0.00;;;;;;;17.37;26.82;96882.56;4978474;28;20045;-76
2022/11/13 14:36:42;;;;;;;0.00;0.00;;;;;;;17.05;27.24;96882.25;4972856;28;20534;-78
2022/11/13 14:39:49;;;;;;;0.00;0.00;;;;;;;17.10;27.65;96883.00;4971561;28;20733;-77
2022/11/13 14:43:01;;;;;;;0.00;0.00;;;;;;;17.30;28.26;96883.97;4980594;28;20387;-79
2022/11/13 14:46:33;;;;;;;0.00;0.00;;;;;;;17.27;29.57;96879.91;4981340;28;20068;-78
2022/11/13 14:49:38;;;;;;;0.00;0.00;;;;;;;17.09;29.95;96877.88;4981045;28;20605;-79
2022/11/13 14:52:42;;;;;;;0.00;0.00;;;;;;;16.60;30.16;96873.25;4980771;28;20038;-79
2022/11/13 14:55:52;;;;;;;0.10;0.10;;;;;;;16.43;29.43;96871.69;4979960;28;20235;-79